createdAt,value
2019-06-07T00:00:37.262Z,15.75
2019-06-07T00:04:21.471Z,15.49
2019-06-07T00:08:29.196Z,14.58
2019-06-07T00:12:35.079Z,14.37
2019-06-07T00:16:41.008Z,14.93
2019-06-07T00:20:46.735Z,14.41
2019-06-07T00:24:52.502Z,14.92
2019-06-07T00:28:58.625Z,15.30
2019-06-07T00:33:04.528Z,16.14
2019-06-07T00:37:11.175Z,15.99
2019-06-07T00:41:19.324Z,15.01
2019-06-07T00:45:25.238Z,15.02
2019-06-07T00:49:40.448Z,14.66
2019-06-07T00:53:38.591Z,14.10
2019-06-07T00:57:44.773Z,14.49
2019-06-07T01:01:50.538Z,15.55
2019-06-07T01:05:57.242Z,16.60
2019-06-07T01:10:03.721Z,14.76
2019-06-07T01:14:09.628Z,14.08
2019-06-07T01:22:28.400Z,13.35
2019-06-07T01:26:30.631Z,12.96
2019-06-07T01:30:36.616Z,12.61
2019-06-07T01:34:42.331Z,12.93
2019-06-07T01:38:48.151Z,13.06
2019-06-07T01:42:54.228Z,12.54
2019-06-07T01:47:00.125Z,12.48
2019-06-07T01:51:05.906Z,12.04
2019-06-07T01:55:13.013Z,11.85
2019-06-07T01:59:21.948Z,11.89
2019-06-07T02:03:32.174Z,12.02
2019-06-07T02:07:33.840Z,12.06
2019-06-07T02:11:39.594Z,12.11
2019-06-07T02:15:45.475Z,12.55
2019-06-07T02:19:51.195Z,12.56
2019-06-07T02:23:56.988Z,12.57
2019-06-07T02:28:26.676Z,12.49
2019-06-07T02:32:10.140Z,12.96
2019-06-07T02:36:15.993Z,12.82
2019-06-07T02:40:22.087Z,12.38
2019-06-07T02:44:32.163Z,12.55
2019-06-07T02:48:39.900Z,12.81
2019-06-07T02:52:42.977Z,12.65
2019-06-07T03:01:06.697Z,12.61
2019-06-07T03:05:04.066Z,13.06
2019-06-07T03:09:10.339Z,12.60
2019-06-07T03:13:20.182Z,12.10
2019-06-07T03:17:38.325Z,12.11
2019-06-07T03:21:43.563Z,12.67
2019-06-07T03:25:52.533Z,12.81
2019-06-07T03:29:58.405Z,12.74
2019-06-07T03:34:04.209Z,13.07
2019-06-07T03:38:09.936Z,13.15
2019-06-07T03:42:15.803Z,12.78
2019-06-07T03:46:21.579Z,13.28
2019-06-07T03:50:30.609Z,12.79
2019-06-07T03:54:37.011Z,12.42
2019-06-07T03:58:49.490Z,12.76
2019-06-07T04:02:49.704Z,13.22
2019-06-07T04:06:55.420Z,12.64
2019-06-07T04:11:01.169Z,12.20
2019-06-07T04:15:08.163Z,12.40
2019-06-07T04:19:13.860Z,12.36
2019-06-07T04:23:29.880Z,12.19
2019-06-07T04:27:27.973Z,12.44
2019-06-07T04:31:36.294Z,12.13
2019-06-07T04:35:43.337Z,12.03
2019-06-07T04:39:50.435Z,12.28
2019-06-07T04:43:59.522Z,12.95
2019-06-07T04:48:07.490Z,12.82
2019-06-07T04:52:15.127Z,12.48
2019-06-07T04:56:20.933Z,12.41
2019-06-07T05:00:58.439Z,12.55
2019-06-07T05:04:44.065Z,12.87
2019-06-07T05:08:49.992Z,13.48
2019-06-07T05:12:55.774Z,13.92
2019-06-07T05:17:01.594Z,13.90
2019-06-07T05:21:07.384Z,13.83
2019-06-07T05:25:13.217Z,13.96
2019-06-07T05:29:19.133Z,13.94
2019-06-07T05:33:25.338Z,14.06
2019-06-07T05:37:32.550Z,13.92
2019-06-07T05:41:42.740Z,14.18
2019-06-07T05:45:47.226Z,14.01
2019-06-07T05:49:53.263Z,13.73
2019-06-07T05:53:59.110Z,13.79
2019-06-07T05:58:05.072Z,14.23
2019-06-07T06:02:22.251Z,14.51
2019-06-07T06:06:19.458Z,15.05
2019-06-07T06:10:25.258Z,15.17
2019-06-07T06:14:31.049Z,15.07
2019-06-07T06:18:38.033Z,14.72
2019-06-07T06:22:48.126Z,14.86
2019-06-07T06:26:57.019Z,15.25
2019-06-07T06:30:58.892Z,16.70
2019-06-07T06:35:07.084Z,16.67
2019-06-07T06:39:12.968Z,16.64
2019-06-07T06:43:18.786Z,17.22
2019-06-07T06:47:24.598Z,17.54
2019-06-07T06:51:30.380Z,18.21
2019-06-07T06:55:36.186Z,19.17
2019-06-07T06:59:43.691Z,18.76
2019-06-07T07:04:07.270Z,18.07
2019-06-07T07:07:57.195Z,18.18
2019-06-07T07:12:12.057Z,18.19
2019-06-07T07:16:10.623Z,18.56
2019-06-07T07:20:16.656Z,18.67
2019-06-07T07:24:22.654Z,18.76
2019-06-07T07:28:28.659Z,19.17
2019-06-07T07:32:35.162Z,19.57
2019-06-07T07:36:40.940Z,19.87
2019-06-07T07:41:14.024Z,20.87
2019-06-07T07:44:56.536Z,21.31
2019-06-07T07:49:01.980Z,21.71
2019-06-07T07:53:08.702Z,22.00
2019-06-07T07:57:14.411Z,22.46
2019-06-07T08:01:20.132Z,22.83
2019-06-07T08:05:41.830Z,23.10
2019-06-07T08:09:33.659Z,23.22
2019-06-07T08:17:41.562Z,23.58
2019-06-07T08:21:48.928Z,23.83
2019-06-07T08:25:57.311Z,24.09
2019-06-07T08:30:35.317Z,24.31
2019-06-07T08:34:11.447Z,24.61
2019-06-07T08:38:29.804Z,24.64
2019-06-07T08:42:36.570Z,24.85
2019-06-07T08:46:32.327Z,24.77
2019-06-07T08:50:38.123Z,25.02
2019-06-07T08:54:44.472Z,24.83
2019-06-07T08:58:54.961Z,24.65
2019-06-07T09:03:02.841Z,23.77
2019-06-07T09:07:18.779Z,23.45
2019-06-07T09:11:13.475Z,24.33
2019-06-07T09:15:23.621Z,25.54
2019-06-07T09:19:27.156Z,26.23
2019-06-07T09:23:32.886Z,26.44
2019-06-07T09:27:39.319Z,26.95
2019-06-07T09:31:53.710Z,27.07
2019-06-07T09:35:52.602Z,27.46
2019-06-07T09:40:05.577Z,28.01
2019-06-07T09:44:21.474Z,28.31
2019-06-07T09:48:23.930Z,28.49
2019-06-07T09:52:20.966Z,28.67
2019-06-07T09:56:26.754Z,28.55
2019-06-07T10:00:41.038Z,29.24
2019-06-07T10:04:40.019Z,29.51
2019-06-07T10:10:08.239Z,29.96
2019-06-07T10:12:53.609Z,29.53
2019-06-07T10:17:00.827Z,29.33
2019-06-07T10:21:07.816Z,29.59
2019-06-07T10:25:14.652Z,30.48
2019-06-07T10:29:21.113Z,30.72
2019-06-07T10:33:27.082Z,31.12
2019-06-07T10:37:32.804Z,31.57
2019-06-07T10:41:38.526Z,31.58
2019-06-07T10:45:44.316Z,31.61
2019-06-07T10:49:51.036Z,31.90
2019-06-07T10:53:56.759Z,32.39
2019-06-07T10:58:02.816Z,32.97
2019-06-07T11:02:09.728Z,32.55
2019-06-07T11:06:17.135Z,33.03
2019-06-07T11:10:24.303Z,33.34
2019-06-07T11:14:30.262Z,32.58
2019-06-07T11:18:35.979Z,33.43
2019-06-07T11:22:41.696Z,33.59
2019-06-07T11:26:47.522Z,34.01
2019-06-07T11:30:53.490Z,33.88
2019-06-07T11:34:59.205Z,33.73
2019-06-07T11:39:08.424Z,34.51
2019-06-07T11:43:14.932Z,34.19
2019-06-07T11:47:20.752Z,34.36
2019-06-07T11:51:28.973Z,34.16
2019-06-07T11:55:34.840Z,34.03
2019-06-07T11:59:40.545Z,35.37
2019-06-07T12:03:46.617Z,35.64
2019-06-07T12:07:52.340Z,35.16
2019-06-07T12:11:58.125Z,35.75
2019-06-07T12:16:03.924Z,36.12
2019-06-07T12:20:14.270Z,35.69
2019-06-07T12:24:21.143Z,36.49
2019-06-07T12:28:27.007Z,35.41
2019-06-07T12:32:32.732Z,35.75
2019-06-07T12:36:39.510Z,35.91
2019-06-07T12:40:57.192Z,36.30
2019-06-07T12:44:53.673Z,35.94
2019-06-07T12:48:59.400Z,35.58
2019-06-07T12:53:05.743Z,34.25
2019-06-07T12:57:11.497Z,35.17
2019-06-07T13:01:18.270Z,34.84
2019-06-07T13:05:24.221Z,34.53
2019-06-07T13:09:30.480Z,35.03
2019-06-07T13:13:36.571Z,33.54
2019-06-07T13:17:42.279Z,33.07
2019-06-07T13:21:49.540Z,34.19
2019-06-07T13:25:55.524Z,33.75
2019-06-07T13:30:09.946Z,33.22
2019-06-07T13:34:11.389Z,33.56
2019-06-07T13:38:26.765Z,34.02
2019-06-07T13:42:33.728Z,35.02
2019-06-07T13:46:39.447Z,34.73
2019-06-07T13:50:45.415Z,35.06
2019-06-07T13:54:51.675Z,34.88
2019-06-07T13:58:57.783Z,35.51
2019-06-07T14:03:03.540Z,34.75
2019-06-07T14:07:09.397Z,34.65
2019-06-07T14:11:15.248Z,34.36
2019-06-07T14:15:22.318Z,34.20
2019-06-07T14:19:28.719Z,33.44
2019-06-07T14:23:47.991Z,33.21
2019-06-07T14:27:42.043Z,32.71
2019-06-07T14:31:47.953Z,32.94
2019-06-07T14:35:53.653Z,32.58
2019-06-07T14:39:59.406Z,32.80
2019-06-07T14:44:06.217Z,32.48
2019-06-07T14:48:12.016Z,32.24
2019-06-07T14:52:17.732Z,32.04
2019-06-07T14:56:24.795Z,32.58
2019-06-07T15:00:40.641Z,32.42
2019-06-07T15:04:48.589Z,32.58
2019-06-07T15:08:54.452Z,32.64
2019-06-07T15:13:00.155Z,32.31
2019-06-07T15:17:05.921Z,32.05
2019-06-07T15:21:11.730Z,31.75
2019-06-07T15:25:17.626Z,31.52
2019-06-07T15:29:23.352Z,31.13
2019-06-07T15:33:29.717Z,30.93
2019-06-07T15:37:36.674Z,31.08
2019-06-07T15:41:42.385Z,31.40
2019-06-07T15:45:48.183Z,30.51
2019-06-07T15:49:54.057Z,30.77
2019-06-07T15:53:59.774Z,30.58
2019-06-07T15:58:05.655Z,30.31
2019-06-07T16:02:11.499Z,30.03
2019-06-07T16:06:19.614Z,30.00
2019-06-07T16:10:25.874Z,30.34
2019-06-07T16:14:33.101Z,30.05
2019-06-07T16:18:39.694Z,29.66
2019-06-07T16:22:45.468Z,29.44
2019-06-07T16:26:51.215Z,29.53
2019-06-07T16:30:56.988Z,29.39
2019-06-07T16:35:02.783Z,28.15
2019-06-07T16:39:09.988Z,27.38
2019-06-07T16:43:17.942Z,27.12
2019-06-07T16:47:23.140Z,27.01
2019-06-07T16:51:28.881Z,26.53
2019-06-07T16:55:34.584Z,26.28
2019-06-07T16:59:40.933Z,26.36
2019-06-07T17:03:47.639Z,26.50
2019-06-07T17:07:53.492Z,26.43
2019-06-07T17:11:59.210Z,26.27
2019-06-07T17:16:06.019Z,25.99
2019-06-07T17:20:12.576Z,25.86
2019-06-07T17:24:18.367Z,25.69
2019-06-07T17:28:24.191Z,25.46
2019-06-07T17:32:29.919Z,25.37
2019-06-07T17:36:35.644Z,25.10
2019-06-07T17:40:42.693Z,24.81
2019-06-07T17:44:49.251Z,24.41
2019-06-07T17:48:55.277Z,24.30
2019-06-07T17:53:00.975Z,23.98
2019-06-07T17:57:06.731Z,23.73
2019-06-07T18:01:12.452Z,23.92
2019-06-07T18:05:19.804Z,23.36
2019-06-07T18:09:26.619Z,23.58
2019-06-07T18:13:32.348Z,23.14
2019-06-07T18:17:38.140Z,21.98
2019-06-07T18:21:44.989Z,22.63
2019-06-07T18:25:50.751Z,22.77
2019-06-07T18:29:56.542Z,22.76
2019-06-07T18:34:02.317Z,23.01
2019-06-07T18:38:10.743Z,22.30
2019-06-07T18:42:15.635Z,22.77
2019-06-07T18:46:22.541Z,23.08
2019-06-07T18:50:28.259Z,21.80
2019-06-07T18:54:33.996Z,22.37
2019-06-07T18:58:39.853Z,22.63
2019-06-07T19:02:45.597Z,22.02
2019-06-07T19:06:52.232Z,21.87
2019-06-07T19:10:58.998Z,22.33
2019-06-07T19:15:11.738Z,21.98
2019-06-07T19:19:17.629Z,22.09
2019-06-07T19:23:23.332Z,22.60
2019-06-07T19:27:32.596Z,22.60
2019-06-07T19:31:36.960Z,20.93
2019-06-07T19:35:42.673Z,20.41
2019-06-07T19:39:48.368Z,19.88
2019-06-07T19:43:54.271Z,20.82
2019-06-07T19:48:00.795Z,20.82
2019-06-07T19:52:06.663Z,21.04
2019-06-07T19:56:13.423Z,20.91
2019-06-07T20:00:21.156Z,21.66
2019-06-07T20:04:26.892Z,20.73
2019-06-07T20:08:32.649Z,19.86
2019-06-07T20:12:38.386Z,19.47
2019-06-07T20:16:44.114Z,19.20
2019-06-07T20:20:49.888Z,20.36
2019-06-07T20:25:29.534Z,21.01
2019-06-07T20:29:35.325Z,21.39
2019-06-07T20:33:41.264Z,21.04
2019-06-07T20:37:46.981Z,20.46
2019-06-07T20:41:52.868Z,19.58
2019-06-07T20:46:00.709Z,18.75
2019-06-07T20:50:09.500Z,18.63
2019-06-07T20:54:15.271Z,18.18
2019-06-07T20:58:20.999Z,18.63
2019-06-07T21:02:26.725Z,18.18
2019-06-07T21:06:32.513Z,18.34
2019-06-07T21:10:38.345Z,18.43
2019-06-07T21:14:44.130Z,18.48
2019-06-07T21:18:49.855Z,18.73
2019-06-07T21:22:55.565Z,18.26
2019-06-07T21:27:01.716Z,18.62
2019-06-07T21:31:10.487Z,17.88
2019-06-07T21:35:16.575Z,17.30
2019-06-07T21:39:22.280Z,17.57
2019-06-07T21:43:28.002Z,17.74
2019-06-07T21:47:33.724Z,17.24
2019-06-07T21:51:39.531Z,17.39
2019-06-07T21:55:45.250Z,17.93
2019-06-07T21:59:50.959Z,17.51
2019-06-07T22:03:56.882Z,17.09
2019-06-07T22:08:03.708Z,17.11
2019-06-07T22:12:10.130Z,17.15
2019-06-07T22:16:26.234Z,16.96
2019-06-07T22:20:23.220Z,16.86
2019-06-07T22:24:28.953Z,17.19
2019-06-07T22:28:34.651Z,17.03
2019-06-07T22:32:40.473Z,17.29
2019-06-07T22:36:47.351Z,17.00
2019-06-07T22:40:53.092Z,16.82
2019-06-07T22:44:58.821Z,16.83
2019-06-07T22:49:04.626Z,16.96
2019-06-07T22:53:11.379Z,16.38
2019-06-07T22:57:27.710Z,16.05
2019-06-07T23:01:33.471Z,16.16
2019-06-07T23:05:39.200Z,15.92
2019-06-07T23:09:44.940Z,15.89
2019-06-07T23:13:50.639Z,16.02
2019-06-07T23:17:56.414Z,15.81
2019-06-07T23:22:02.196Z,15.55
2019-06-07T23:26:10.016Z,15.77
2019-06-07T23:30:16.650Z,15.90
2019-06-07T23:34:22.434Z,15.88
2019-06-07T23:38:28.146Z,15.98
2019-06-07T23:42:33.849Z,16.19
2019-06-07T23:46:39.582Z,16.51
2019-06-07T23:50:45.298Z,15.99
2019-06-07T23:54:51.028Z,16.07
2019-06-07T23:58:57.019Z,16.60
